sensor_id;sensor_type;location;lat;lon;timestamp;pressure;altitude;pressure_sealevel;temperature;humidity
29825;BME280;16713;52.916;12.834;2023-02-03T00:00:38;101436.88;;;3.27;76.05
29825;BME280;16713;52.916;12.834;2023-02-03T00:03:04;101424.44;;;3.26;75.70
29825;BME280;16713;52.916;12.834;2023-02-03T00:05:32;101412.47;;;3.27;75.88
29825;BME280;16713;52.916;12.834;2023-02-03T00:07:59;101410.50;;;3.33;74.77
29825;BME280;16713;52.916;12.834;2023-02-03T00:10:25;101395.09;;;3.28;76.94
29825;BME280;16713;52.916;12.834;2023-02-03T00:12:52;101391.66;;;3.46;76.64
29825;BME280;16713;52.916;12.834;2023-02-03T00:15:19;101378.50;;;3.35;76.15
29825;BME280;16713;52.916;12.834;2023-02-03T00:17:45;101379.69;;;3.47;77.16
29825;BME280;16713;52.916;12.834;2023-02-03T00:20:11;101363.22;;;3.44;77.02
29825;BME280;16713;52.916;12.834;2023-02-03T00:22:38;101372.06;;;3.49;77.71
29825;BME280;16713;52.916;12.834;2023-02-03T00:25:04;101356.63;;;3.50;77.57
29825;BME280;16713;52.916;12.834;2023-02-03T00:27:31;101349.84;;;3.47;78.47
29825;BME280;16713;52.916;12.834;2023-02-03T00:29:57;101356.09;;;3.48;77.87
29825;BME280;16713;52.916;12.834;2023-02-03T00:32:23;101349.84;;;3.47;77.29
29825;BME280;16713;52.916;12.834;2023-02-03T00:34:50;101349.06;;;3.47;78.07
29825;BME280;16713;52.916;12.834;2023-02-03T00:37:16;101336.81;;;3.49;77.80
29825;BME280;16713;52.916;12.834;2023-02-03T00:39:42;101339.25;;;3.51;77.49
29825;BME280;16713;52.916;12.834;2023-02-03T00:42:09;101340.72;;;3.62;77.09
29825;BME280;16713;52.916;12.834;2023-02-03T00:44:35;101342.19;;;3.55;77.56
29825;BME280;16713;52.916;12.834;2023-02-03T00:47:01;101326.50;;;3.52;76.63
29825;BME280;16713;52.916;12.834;2023-02-03T00:49:28;101323.09;;;3.41;78.60
29825;BME280;16713;52.916;12.834;2023-02-03T00:51:54;101317.97;;;3.39;78.00
29825;BME280;16713;52.916;12.834;2023-02-03T00:54:20;101316.59;;;3.42;77.38
29825;BME280;16713;52.916;12.834;2023-02-03T00:56:47;101310.44;;;3.36;78.56
29825;BME280;16713;52.916;12.834;2023-02-03T00:59:13;101302.47;;;3.45;78.20
29825;BME280;16713;52.916;12.834;2023-02-03T01:01:39;101307.88;;;3.45;79.57
29825;BME280;16713;52.916;12.834;2023-02-03T01:04:06;101301.56;;;3.49;78.99
29825;BME280;16713;52.916;12.834;2023-02-03T01:06:32;101298.13;;;3.63;77.81
29825;BME280;16713;52.916;12.834;2023-02-03T01:09:00;101303.69;;;3.52;77.85
29825;BME280;16713;52.916;12.834;2023-02-03T01:11:26;101286.72;;;3.47;79.02
29825;BME280;16713;52.916;12.834;2023-02-03T01:13:53;101279.47;;;3.42;78.33
29825;BME280;16713;52.916;12.834;2023-02-03T01:16:21;101277.31;;;3.39;78.20
29825;BME280;16713;52.916;12.834;2023-02-03T01:18:47;101267.34;;;3.35;79.57
29825;BME280;16713;52.916;12.834;2023-02-03T01:21:15;101272.94;;;3.43;79.40
29825;BME280;16713;52.916;12.834;2023-02-03T01:23:42;101261.28;;;3.43;78.75
29825;BME280;16713;52.916;12.834;2023-02-03T01:26:09;101258.03;;;3.41;78.75
29825;BME280;16713;52.916;12.834;2023-02-03T01:28:36;101256.66;;;3.43;77.62
29825;BME280;16713;52.916;12.834;2023-02-03T01:33:35;101231.53;;;3.38;77.58
29825;BME280;16713;52.916;12.834;2023-02-03T01:36:01;101228.81;;;3.38;79.39
29825;BME280;16713;52.916;12.834;2023-02-03T01:38:28;101219.22;;;3.45;77.48
29825;BME280;16713;52.916;12.834;2023-02-03T01:40:54;101214.66;;;3.41;78.96
29825;BME280;16713;52.916;12.834;2023-02-03T01:43:31;101206.97;;;3.48;79.16
29825;BME280;16713;52.916;12.834;2023-02-03T01:45:58;101195.00;;;3.49;77.78
29825;BME280;16713;52.916;12.834;2023-02-03T01:48:26;101188.44;;;3.55;76.87
29825;BME280;16713;52.916;12.834;2023-02-03T01:50:53;101185.13;;;3.39;77.14
29825;BME280;16713;52.916;12.834;2023-02-03T01:53:20;101173.72;;;3.42;79.08
29825;BME280;16713;52.916;12.834;2023-02-03T01:55:47;101164.47;;;3.43;78.47
29825;BME280;16713;52.916;12.834;2023-02-03T01:58:16;101156.56;;;3.47;78.26
29825;BME280;16713;52.916;12.834;2023-02-03T02:00:45;101147.09;;;3.44;78.33
29825;BME280;16713;52.916;12.834;2023-02-03T02:03:12;101136.03;;;3.41;77.19
29825;BME280;16713;52.916;12.834;2023-02-03T02:05:41;101137.16;;;3.40;77.65
29825;BME280;16713;52.916;12.834;2023-02-03T02:08:11;101129.63;;;3.37;78.16
29825;BME280;16713;52.916;12.834;2023-02-03T02:10:37;101115.97;;;3.42;77.58
29825;BME280;16713;52.916;12.834;2023-02-03T02:13:04;101108.16;;;3.40;77.79
29825;BME280;16713;52.916;12.834;2023-02-03T02:15:38;101091.16;;;3.35;77.84
29825;BME280;16713;52.916;12.834;2023-02-03T02:25:52;101046.31;;;3.42;78.93
29825;BME280;16713;52.916;12.834;2023-02-03T02:39:17;101042.97;;;3.32;79.03
29825;BME280;16713;52.916;12.834;2023-02-03T02:41:47;101027.91;;;3.39;78.31
29825;BME280;16713;52.916;12.834;2023-02-03T02:44:17;101026.00;;;3.40;79.08
29825;BME280;16713;52.916;12.834;2023-02-03T02:46:47;101013.06;;;3.37;79.40
29825;BME280;16713;52.916;12.834;2023-02-03T02:49:15;101013.56;;;3.39;78.42
29825;BME280;16713;52.916;12.834;2023-02-03T02:51:45;101006.25;;;3.53;79.89
29825;BME280;16713;52.916;12.834;2023-02-03T02:54:14;101008.66;;;3.55;79.17
29825;BME280;16713;52.916;12.834;2023-02-03T02:56:42;100993.59;;;3.62;78.78
29825;BME280;16713;52.916;12.834;2023-02-03T02:59:10;100977.53;;;3.52;79.59
29825;BME280;16713;52.916;12.834;2023-02-03T03:01:37;100960.84;;;3.45;78.84
29825;BME280;16713;52.916;12.834;2023-02-03T03:04:06;100951.13;;;3.44;79.00
29825;BME280;16713;52.916;12.834;2023-02-03T03:06:35;100951.13;;;3.44;80.40
29825;BME280;16713;52.916;12.834;2023-02-03T03:09:11;100942.38;;;3.47;79.16
29825;BME280;16713;52.916;12.834;2023-02-03T03:11:40;100952.03;;;3.53;79.44
29825;BME280;16713;52.916;12.834;2023-02-03T03:14:08;100939.19;;;3.59;79.30
29825;BME280;16713;52.916;12.834;2023-02-03T03:16:36;100937.56;;;3.58;79.33
29825;BME280;16713;52.916;12.834;2023-02-03T03:19:05;100935.25;;;3.51;78.52
29825;BME280;16713;52.916;12.834;2023-02-03T03:21:34;100931.81;;;3.59;78.76
29825;BME280;16713;52.916;12.834;2023-02-03T03:24:02;100928.53;;;3.48;80.42
29825;BME280;16713;52.916;12.834;2023-02-03T03:26:34;100923.47;;;3.56;80.45
29825;BME280;16713;52.916;12.834;2023-02-03T03:29:17;100924.50;;;3.60;79.40
29825;BME280;16713;52.916;12.834;2023-02-03T03:31:46;100921.28;;;3.71;78.96
29825;BME280;16713;52.916;12.834;2023-02-03T03:34:13;100900.59;;;3.62;80.09
29825;BME280;16713;52.916;12.834;2023-02-03T03:36:43;100896.56;;;3.59;79.93
29825;BME280;16713;52.916;12.834;2023-02-03T03:39:57;100894.97;;;3.58;80.18
29825;BME280;16713;52.916;12.834;2023-02-03T03:42:04;100903.63;;;3.60;79.98
29825;BME280;16713;52.916;12.834;2023-02-03T03:44:36;100896.34;;;3.83;79.78
29825;BME280;16713;52.916;12.834;2023-02-03T03:47:15;100888.72;;;3.71;78.74
29825;BME280;16713;52.916;12.834;2023-02-03T03:49:42;100888.53;;;3.68;79.24
29825;BME280;16713;52.916;12.834;2023-02-03T03:52:11;100872.47;;;3.71;79.59
29825;BME280;16713;52.916;12.834;2023-02-03T03:54:39;100862.59;;;3.75;79.86
29825;BME280;16713;52.916;12.834;2023-02-03T03:59:36;100842.81;;;3.75;79.35
29825;BME280;16713;52.916;12.834;2023-02-03T04:02:04;100836.09;;;3.72;79.76
29825;BME280;16713;52.916;12.834;2023-02-03T04:04:31;100841.66;;;3.89;80.12
29825;BME280;16713;52.916;12.834;2023-02-03T04:06:58;100828.34;;;3.79;80.16
29825;BME280;16713;52.916;12.834;2023-02-03T04:09:25;100817.72;;;3.91;80.77
29825;BME280;16713;52.916;12.834;2023-02-03T04:11:51;100817.84;;;3.86;80.59
29825;BME280;16713;52.916;12.834;2023-02-03T04:14:27;100811.69;;;3.94;81.16
29825;BME280;16713;52.916;12.834;2023-02-03T04:16:55;100805.63;;;3.97;82.18
29825;BME280;16713;52.916;12.834;2023-02-03T04:19:22;100796.41;;;3.98;81.49
29825;BME280;16713;52.916;12.834;2023-02-03T04:21:49;100797.88;;;4.04;81.90
29825;BME280;16713;52.916;12.834;2023-02-03T04:24:15;100786.41;;;4.07;81.05
29825;BME280;16713;52.916;12.834;2023-02-03T04:26:41;100790.75;;;4.08;83.17
29825;BME280;16713;52.916;12.834;2023-02-03T04:29:08;100790.41;;;4.32;83.13
29825;BME280;16713;52.916;12.834;2023-02-03T04:31:34;100792.44;;;4.26;82.88
29825;BME280;16713;52.916;12.834;2023-02-03T04:34:01;100769.31;;;4.29;82.19
29825;BME280;16713;52.916;12.834;2023-02-03T04:36:27;100757.00;;;4.31;83.28
29825;BME280;16713;52.916;12.834;2023-02-03T04:38:53;100753.03;;;4.37;83.74
29825;BME280;16713;52.916;12.834;2023-02-03T04:41:20;100744.75;;;4.34;83.04
29825;BME280;16713;52.916;12.834;2023-02-03T04:43:46;100749.72;;;4.40;83.63
29825;BME280;16713;52.916;12.834;2023-02-03T04:46:12;100750.59;;;4.49;82.89
29825;BME280;16713;52.916;12.834;2023-02-03T04:48:39;100743.56;;;4.48;82.80
29825;BME280;16713;52.916;12.834;2023-02-03T04:51:06;100738.47;;;4.55;84.67
29825;BME280;16713;52.916;12.834;2023-02-03T04:53:33;100734.03;;;4.59;83.55
29825;BME280;16713;52.916;12.834;2023-02-03T04:55:59;100732.09;;;4.60;83.73
29825;BME280;16713;52.916;12.834;2023-02-03T04:58:26;100739.47;;;4.68;84.80
29825;BME280;16713;52.916;12.834;2023-02-03T05:00:52;100724.97;;;4.72;83.79
29825;BME280;16713;52.916;12.834;2023-02-03T05:03:19;100720.34;;;4.81;83.89
29825;BME280;16713;52.916;12.834;2023-02-03T05:05:46;100723.56;;;4.83;83.85
29825;BME280;16713;52.916;12.834;2023-02-03T05:08:12;100724.72;;;5.00;84.16
29825;BME280;16713;52.916;12.834;2023-02-03T05:10:38;100720.25;;;4.95;83.35
29825;BME280;16713;52.916;12.834;2023-02-03T05:13:05;100702.50;;;4.98;84.45
29825;BME280;16713;52.916;12.834;2023-02-03T05:15:31;100706.50;;;5.09;84.25
29825;BME280;16713;52.916;12.834;2023-02-03T05:17:57;100695.31;;;5.10;84.00
29825;BME280;16713;52.916;12.834;2023-02-03T05:20:24;100693.56;;;5.14;83.88
29825;BME280;16713;52.916;12.834;2023-02-03T05:22:51;100683.63;;;5.10;84.34
29825;BME280;16713;52.916;12.834;2023-02-03T05:25:17;100681.56;;;5.15;85.46
29825;BME280;16713;52.916;12.834;2023-02-03T05:27:43;100658.84;;;5.20;85.23
29825;BME280;16713;52.916;12.834;2023-02-03T05:30:10;100658.22;;;5.23;85.87
29825;BME280;16713;52.916;12.834;2023-02-03T05:32:36;100652.44;;;5.24;85.67
29825;BME280;16713;52.916;12.834;2023-02-03T05:35:03;100657.91;;;5.41;85.57
29825;BME280;16713;52.916;12.834;2023-02-03T05:37:29;100639.03;;;5.36;86.36
29825;BME280;16713;52.916;12.834;2023-02-03T05:39:55;100630.06;;;5.53;85.33
29825;BME280;16713;52.916;12.834;2023-02-03T05:42:45;100621.09;;;5.44;86.17
29825;BME280;16713;52.916;12.834;2023-02-03T05:45:12;100617.72;;;5.55;86.04
29825;BME280;16713;52.916;12.834;2023-02-03T05:47:38;100612.72;;;5.66;85.92
29825;BME280;16713;52.916;12.834;2023-02-03T05:50:04;100602.81;;;5.61;86.04
29825;BME280;16713;52.916;12.834;2023-02-03T05:52:31;100585.84;;;5.64;86.40
29825;BME280;16713;52.916;12.834;2023-02-03T05:54:57;100587.94;;;5.67;86.57
29825;BME280;16713;52.916;12.834;2023-02-03T05:57:23;100575.56;;;5.78;86.47
29825;BME280;16713;52.916;12.834;2023-02-03T05:59:50;100565.78;;;5.77;86.54
29825;BME280;16713;52.916;12.834;2023-02-03T06:02:16;100562.91;;;5.82;86.95
29825;BME280;16713;52.916;12.834;2023-02-03T06:04:42;100561.88;;;5.95;86.59
29825;BME280;16713;52.916;12.834;2023-02-03T06:07:08;100564.94;;;5.94;86.67
29825;BME280;16713;52.916;12.834;2023-02-03T06:09:35;100554.03;;;6.02;86.37
29825;BME280;16713;52.916;12.834;2023-02-03T06:12:01;100553.34;;;6.05;87.11
29825;BME280;16713;52.916;12.834;2023-02-03T06:14:28;100554.72;;;6.20;86.27
29825;BME280;16713;52.916;12.834;2023-02-03T06:16:54;100541.19;;;6.03;86.91
29825;BME280;16713;52.916;12.834;2023-02-03T06:19:20;100552.84;;;6.12;86.93
29825;BME280;16713;52.916;12.834;2023-02-03T06:21:47;100548.63;;;6.23;86.86
29825;BME280;16713;52.916;12.834;2023-02-03T06:24:13;100539.97;;;6.21;86.85
29825;BME280;16713;52.916;12.834;2023-02-03T06:26:39;100545.22;;;6.26;86.62
29825;BME280;16713;52.916;12.834;2023-02-03T06:29:06;100547.16;;;6.25;86.75
29825;BME280;16713;52.916;12.834;2023-02-03T06:31:32;100529.00;;;6.38;86.36
29825;BME280;16713;52.916;12.834;2023-02-03T06:33:59;100519.09;;;6.33;85.97
29825;BME280;16713;52.916;12.834;2023-02-03T06:36:27;100521.75;;;6.42;86.50
29825;BME280;16713;52.916;12.834;2023-02-03T06:38:54;100509.41;;;6.45;85.68
29825;BME280;16713;52.916;12.834;2023-02-03T06:41:20;100508.28;;;6.46;86.01
29825;BME280;16713;52.916;12.834;2023-02-03T06:43:52;100498.06;;;6.43;86.07
29825;BME280;16713;52.916;12.834;2023-02-03T06:46:19;100490.84;;;6.38;86.10
29825;BME280;16713;52.916;12.834;2023-02-03T06:48:45;100481.53;;;6.48;86.29
29825;BME280;16713;52.916;12.834;2023-02-03T06:51:11;100485.22;;;6.43;86.31
29825;BME280;16713;52.916;12.834;2023-02-03T06:53:37;100491.84;;;6.54;85.92
29825;BME280;16713;52.916;12.834;2023-02-03T06:56:04;100484.97;;;6.57;86.98
29825;BME280;16713;52.916;12.834;2023-02-03T06:58:30;100469.94;;;6.51;85.95
29825;BME280;16713;52.916;12.834;2023-02-03T07:00:57;100473.22;;;6.44;86.23
29825;BME280;16713;52.916;12.834;2023-02-03T07:03:23;100465.63;;;6.50;86.26
29825;BME280;16713;52.916;12.834;2023-02-03T07:05:49;100461.97;;;6.46;86.33
29825;BME280;16713;52.916;12.834;2023-02-03T07:08:16;100454.38;;;6.51;86.58
29825;BME280;16713;52.916;12.834;2023-02-03T07:10:42;100443.47;;;6.51;86.54
29825;BME280;16713;52.916;12.834;2023-02-03T07:13:08;100430.81;;;6.55;86.17
29825;BME280;16713;52.916;12.834;2023-02-03T07:15:34;100428.88;;;6.56;85.89
29825;BME280;16713;52.916;12.834;2023-02-03T07:18:01;100428.09;;;6.55;86.22
29825;BME280;16713;52.916;12.834;2023-02-03T07:20:27;100414.94;;;6.57;87.01
29825;BME280;16713;52.916;12.834;2023-02-03T07:22:55;100421.13;;;6.46;86.62
29825;BME280;16713;52.916;12.834;2023-02-03T07:25:22;100422.50;;;6.52;86.77
29825;BME280;16713;52.916;12.834;2023-02-03T07:27:49;100417.84;;;6.52;87.04
29825;BME280;16713;52.916;12.834;2023-02-03T07:30:16;100412.53;;;6.56;87.23
29825;BME280;16713;52.916;12.834;2023-02-03T07:32:46;100399.22;;;6.54;87.01
29825;BME280;16713;52.916;12.834;2023-02-03T07:35:13;100393.00;;;6.54;87.04
29825;BME280;16713;52.916;12.834;2023-02-03T07:37:40;100386.47;;;6.46;87.82
29825;BME280;16713;52.916;12.834;2023-02-03T07:40:06;100399.56;;;6.53;87.83
29825;BME280;16713;52.916;12.834;2023-02-03T07:42:33;100389.25;;;6.58;86.99
29825;BME280;16713;52.916;12.834;2023-02-03T07:44:59;100402.81;;;6.67;86.51
29825;BME280;16713;52.916;12.834;2023-02-03T07:47:25;100395.88;;;6.69;86.80
29825;BME280;16713;52.916;12.834;2023-02-03T07:49:52;100391.38;;;6.73;87.06
29825;BME280;16713;52.916;12.834;2023-02-03T07:52:18;100375.22;;;6.68;85.95
29825;BME280;16713;52.916;12.834;2023-02-03T07:54:47;100367.72;;;6.65;86.33
29825;BME280;16713;52.916;12.834;2023-02-03T07:57:13;100373.03;;;6.62;86.67
29825;BME280;16713;52.916;12.834;2023-02-03T07:59:39;100369.19;;;6.63;87.49
29825;BME280;16713;52.916;12.834;2023-02-03T08:02:07;100359.00;;;6.72;87.01
29825;BME280;16713;52.916;12.834;2023-02-03T08:04:34;100351.25;;;6.74;86.55
29825;BME280;16713;52.916;12.834;2023-02-03T08:07:00;100364.88;;;6.74;86.62
29825;BME280;16713;52.916;12.834;2023-02-03T08:09:27;100348.19;;;6.63;87.38
29825;BME280;16713;52.916;12.834;2023-02-03T08:11:53;100347.38;;;6.63;87.43
29825;BME280;16713;52.916;12.834;2023-02-03T08:14:19;100349.44;;;6.66;87.32
29825;BME280;16713;52.916;12.834;2023-02-03T08:16:46;100347.28;;;6.71;87.63
29825;BME280;16713;52.916;12.834;2023-02-03T08:19:12;100353.22;;;6.85;86.64
29825;BME280;16713;52.916;12.834;2023-02-03T08:21:38;100343.81;;;6.83;87.28
29825;BME280;16713;52.916;12.834;2023-02-03T08:24:05;100339.59;;;6.85;86.86
29825;BME280;16713;52.916;12.834;2023-02-03T08:26:31;100320.63;;;6.89;87.33
29825;BME280;16713;52.916;12.834;2023-02-03T08:28:57;100324.16;;;6.89;86.13
29825;BME280;16713;52.916;12.834;2023-02-03T08:31:24;100315.06;;;6.85;87.18
29825;BME280;16713;52.916;12.834;2023-02-03T08:33:50;100325.75;;;6.90;87.46
29825;BME280;16713;52.916;12.834;2023-02-03T08:36:17;100316.63;;;6.86;86.64
29825;BME280;16713;52.916;12.834;2023-02-03T08:38:43;100313.13;;;6.86;87.08
29825;BME280;16713;52.916;12.834;2023-02-03T08:41:14;100302.44;;;6.93;87.23
29825;BME280;16713;52.916;12.834;2023-02-03T08:43:41;100305.53;;;6.91;86.25
29825;BME280;16713;52.916;12.834;2023-02-03T08:46:08;100293.84;;;7.03;86.20
29825;BME280;16713;52.916;12.834;2023-02-03T08:48:35;100295.09;;;7.05;86.80
29825;BME280;16713;52.916;12.834;2023-02-03T08:51:02;100291.91;;;7.03;86.72
29825;BME280;16713;52.916;12.834;2023-02-03T08:53:34;100287.38;;;6.95;86.57
29825;BME280;16713;52.916;12.834;2023-02-03T08:56:03;100278.75;;;7.05;87.13
29825;BME280;16713;52.916;12.834;2023-02-03T08:58:30;100275.91;;;7.02;85.85
29825;BME280;16713;52.916;12.834;2023-02-03T09:01:04;100282.34;;;7.09;86.36
29825;BME280;16713;52.916;12.834;2023-02-03T09:03:30;100279.50;;;7.06;86.01
29825;BME280;16713;52.916;12.834;2023-02-03T09:05:57;100273.16;;;7.02;87.42
29825;BME280;16713;52.916;12.834;2023-02-03T09:08:24;100274.19;;;7.09;87.03
29825;BME280;16713;52.916;12.834;2023-02-03T09:10:50;100278.25;;;7.15;87.03
29825;BME280;16713;52.916;12.834;2023-02-03T09:13:17;100264.28;;;7.17;86.56
29825;BME280;16713;52.916;12.834;2023-02-03T09:15:43;100261.66;;;7.20;85.83
29825;BME280;16713;52.916;12.834;2023-02-03T09:18:09;100259.16;;;7.15;86.39
29825;BME280;16713;52.916;12.834;2023-02-03T09:20:36;100271.47;;;7.21;86.56
29825;BME280;16713;52.916;12.834;2023-02-03T09:23:02;100254.63;;;7.19;86.07
29825;BME280;16713;52.916;12.834;2023-02-03T09:25:28;100244.63;;;7.11;85.85
29825;BME280;16713;52.916;12.834;2023-02-03T09:27:55;100243.38;;;7.21;85.71
29825;BME280;16713;52.916;12.834;2023-02-03T09:30:21;100245.53;;;7.27;85.38
29825;BME280;16713;52.916;12.834;2023-02-03T09:32:49;100255.97;;;7.25;86.03
29825;BME280;16713;52.916;12.834;2023-02-03T09:35:19;100235.19;;;7.21;85.25
29825;BME280;16713;52.916;12.834;2023-02-03T09:37:46;100248.59;;;7.26;86.72
29825;BME280;16713;52.916;12.834;2023-02-03T09:40:29;100257.34;;;7.19;85.22
29825;BME280;16713;52.916;12.834;2023-02-03T09:45:42;100246.22;;;7.24;86.29
29825;BME280;16713;52.916;12.834;2023-02-03T09:48:11;100245.88;;;7.26;86.62
29825;BME280;16713;52.916;12.834;2023-02-03T09:50:39;100227.59;;;7.14;86.26
29825;BME280;16713;52.916;12.834;2023-02-03T09:53:10;100252.72;;;7.20;84.33
29825;BME280;16713;52.916;12.834;2023-02-03T09:55:40;100249.84;;;7.28;82.37
29825;BME280;16713;52.916;12.834;2023-02-03T10:00:43;100238.53;;;6.90;78.08
29825;BME280;16713;52.916;12.834;2023-02-03T10:05:45;100273.16;;;7.02;78.25
29825;BME280;16713;52.916;12.834;2023-02-03T10:11:24;100308.16;;;7.00;78.13
29825;BME280;16713;52.916;12.834;2023-02-03T10:16:17;100333.25;;;6.93;77.06
29825;BME280;16713;52.916;12.834;2023-02-03T10:18:51;100333.47;;;6.88;75.81
29825;BME280;16713;52.916;12.834;2023-02-03T10:21:30;100336.19;;;6.88;76.11
29825;BME280;16713;52.916;12.834;2023-02-03T10:23:58;100331.88;;;6.87;75.85
29825;BME280;16713;52.916;12.834;2023-02-03T10:26:26;100325.16;;;6.73;75.52
29825;BME280;16713;52.916;12.834;2023-02-03T10:28:53;100337.63;;;6.74;75.89
29825;BME280;16713;52.916;12.834;2023-02-03T10:31:22;100320.50;;;6.73;75.46
29825;BME280;16713;52.916;12.834;2023-02-03T10:33:55;100328.56;;;6.82;74.95
29825;BME280;16713;52.916;12.834;2023-02-03T10:36:22;100322.78;;;6.71;75.47
29825;BME280;16713;52.916;12.834;2023-02-03T10:38:58;100331.41;;;6.73;75.17
29825;BME280;16713;52.916;12.834;2023-02-03T10:41:26;100325.41;;;6.80;74.89
29825;BME280;16713;52.916;12.834;2023-02-03T10:43:54;100326.84;;;6.77;75.07
29825;BME280;16713;52.916;12.834;2023-02-03T10:46:26;100329.38;;;6.82;75.29
29825;BME280;16713;52.916;12.834;2023-02-03T10:48:53;100323.00;;;6.78;75.11
29825;BME280;16713;52.916;12.834;2023-02-03T10:53:52;100327.53;;;6.86;74.95
29825;BME280;16713;52.916;12.834;2023-02-03T10:56:20;100327.53;;;6.86;74.34
29825;BME280;16713;52.916;12.834;2023-02-03T11:01:15;100329.50;;;6.98;74.33
29825;BME280;16713;52.916;12.834;2023-02-03T11:03:43;100343.28;;;7.13;75.04
29825;BME280;16713;52.916;12.834;2023-02-03T11:06:18;100341.91;;;7.19;75.44
29825;BME280;16713;52.916;12.834;2023-02-03T11:08:45;100344.53;;;7.28;74.80
29825;BME280;16713;52.916;12.834;2023-02-03T11:11:22;100355.09;;;7.29;75.02
29825;BME280;16713;52.916;12.834;2023-02-03T11:16:29;100357.81;;;7.41;74.16
29825;BME280;16713;52.916;12.834;2023-02-03T11:23:54;100367.56;;;7.54;73.30
29825;BME280;16713;52.916;12.834;2023-02-03T11:26:25;100359.63;;;7.61;73.34
29825;BME280;16713;52.916;12.834;2023-02-03T11:28:53;100371.44;;;7.41;72.92
29825;BME280;16713;52.916;12.834;2023-02-03T11:31:26;100372.34;;;7.57;72.53
29825;BME280;16713;52.916;12.834;2023-02-03T11:33:54;100336.19;;;7.72;71.99
29825;BME280;16713;52.916;12.834;2023-02-03T11:36:23;100385.75;;;7.74;71.50
29825;BME280;16713;52.916;12.834;2023-02-03T11:38:51;100390.19;;;7.79;71.07
29825;BME280;16713;52.916;12.834;2023-02-03T11:41:18;100375.84;;;7.70;70.64
29825;BME280;16713;52.916;12.834;2023-02-03T11:43:47;100386.78;;;7.70;70.62
29825;BME280;16713;52.916;12.834;2023-02-03T11:46:13;100374.81;;;7.74;69.46
29825;BME280;16713;52.916;12.834;2023-02-03T11:48:44;100376.09;;;7.65;70.71
29825;BME280;16713;52.916;12.834;2023-02-03T11:54:13;100380.75;;;7.64;71.39
29825;BME280;16713;52.916;12.834;2023-02-03T11:59:33;100343.72;;;7.51;70.28
29825;BME280;16713;52.916;12.834;2023-02-03T12:02:06;100344.47;;;7.64;70.39
29825;BME280;16713;52.916;12.834;2023-02-03T12:10:12;100341.28;;;7.74;69.95
29825;BME280;16713;52.916;12.834;2023-02-03T12:12:48;100371.19;;;7.70;69.63
29825;BME280;16713;52.916;12.834;2023-02-03T12:15:36;100421.47;;;7.69;68.70
29825;BME280;16713;52.916;12.834;2023-02-03T12:26:01;100512.41;;;6.31;72.91
29825;BME280;16713;52.916;12.834;2023-02-03T12:31:04;100475.81;;;5.82;73.90
29825;BME280;16713;52.916;12.834;2023-02-03T12:33:37;100470.81;;;5.93;74.64
29825;BME280;16713;52.916;12.834;2023-02-03T12:36:10;100488.72;;;5.94;75.31
29825;BME280;16713;52.916;12.834;2023-02-03T12:38:40;100494.97;;;5.94;75.65
29825;BME280;16713;52.916;12.834;2023-02-03T12:41:13;100483.31;;;5.85;76.53
29825;BME280;16713;52.916;12.834;2023-02-03T12:46:11;100498.94;;;5.97;76.89
29825;BME280;16713;52.916;12.834;2023-02-03T12:51:27;100500.63;;;6.10;76.84
29825;BME280;16713;52.916;12.834;2023-02-03T12:53:57;100517.53;;;5.95;76.32
29825;BME280;16713;52.916;12.834;2023-02-03T12:56:25;100494.47;;;6.01;75.80
29825;BME280;16713;52.916;12.834;2023-02-03T12:58:56;100491.00;;;6.12;74.59
29825;BME280;16713;52.916;12.834;2023-02-03T13:01:27;100475.84;;;6.03;73.71
29825;BME280;16713;52.916;12.834;2023-02-03T13:04:09;100482.84;;;6.12;72.67
29825;BME280;16713;52.916;12.834;2023-02-03T13:06:42;100484.69;;;6.00;72.35
29825;BME280;16713;52.916;12.834;2023-02-03T13:09:24;100493.59;;;6.09;72.34
29825;BME280;16713;52.916;12.834;2023-02-03T13:11:56;100479.59;;;6.19;72.91
29825;BME280;16713;52.916;12.834;2023-02-03T13:16:52;100469.78;;;6.26;71.47
29825;BME280;16713;52.916;12.834;2023-02-03T13:19:21;100477.00;;;6.02;72.29
29825;BME280;16713;52.916;12.834;2023-02-03T13:21:50;100479.19;;;6.08;72.37
29825;BME280;16713;52.916;12.834;2023-02-03T13:24:16;100480.97;;;6.04;72.02
29825;BME280;16713;52.916;12.834;2023-02-03T13:39:40;100465.91;;;6.36;72.03
29825;BME280;16713;52.916;12.834;2023-02-03T13:44:41;100474.50;;;6.38;72.47
29825;BME280;16713;52.916;12.834;2023-02-03T13:47:13;100465.22;;;6.60;72.39
29825;BME280;16713;52.916;12.834;2023-02-03T13:49:42;100466.72;;;6.69;72.23
29825;BME280;16713;52.916;12.834;2023-02-03T13:54:55;100485.53;;;6.83;71.11
29825;BME280;16713;52.916;12.834;2023-02-03T13:57:31;100473.31;;;7.01;71.39
29825;BME280;16713;52.916;12.834;2023-02-03T14:00:00;100485.06;;;7.13;69.79
29825;BME280;16713;52.916;12.834;2023-02-03T14:07:32;100491.09;;;7.19;69.98
29825;BME280;16713;52.916;12.834;2023-02-03T14:12:38;100488.72;;;7.17;70.32
29825;BME280;16713;52.916;12.834;2023-02-03T14:17:54;100488.75;;;7.29;69.48
29825;BME280;16713;52.916;12.834;2023-02-03T14:22:53;100478.97;;;7.28;68.98
29825;BME280;16713;52.916;12.834;2023-02-03T14:25:20;100499.88;;;7.24;68.69
29825;BME280;16713;52.916;12.834;2023-02-03T14:27:47;100496.13;;;7.29;68.54
29825;BME280;16713;52.916;12.834;2023-02-03T14:30:24;100497.97;;;7.37;68.58
29825;BME280;16713;52.916;12.834;2023-02-03T14:35:18;100523.75;;;7.39;67.75
29825;BME280;16713;52.916;12.834;2023-02-03T14:37:51;100537.59;;;7.22;68.16
29825;BME280;16713;52.916;12.834;2023-02-03T14:45:40;100563.91;;;7.06;68.21
29825;BME280;16713;52.916;12.834;2023-02-03T14:48:13;100580.19;;;6.94;69.07
29825;BME280;16713;52.916;12.834;2023-02-03T14:50:53;100587.81;;;7.01;69.35
29825;BME280;16713;52.916;12.834;2023-02-03T14:56:10;100584.59;;;6.87;69.26